Time;durP1;ratioP1;P1;durP2;ratioP2;P2;SDS_P1;SDS_P2;PMS_P1;PMS_P2;Temp;Humidity;BMP_temperature;BMP_pressure;BME280_temperature;BME280_humidity;BME280_pressure;Samples;Min_cycle;Max_cycle;Signal;HPM_P1;HPM_P2
2022/11/03 00:00:29;;;;;;;322.70;151.07;;;;;;;;;;4981226;28;20572;-54
2022/11/03 00:02:55;;;;;;;321.90;147.87;;;;;;;;;;4982969;28;20790;-54
2022/11/03 00:08:06;;;;;;;347.57;162.33;;;;;;;;;;4978165;28;20855;-55
2022/11/03 00:10:32;;;;;;;358.07;170.87;;;;;;;;;;4975284;28;20228;-54
2022/11/03 00:12:58;;;;;;;338.40;155.33;;;;;;;;;;4966997;28;20229;-55
2022/11/03 00:15:24;;;;;;;343.90;160.90;;;;;;;;;;4973615;28;20222;-55
2022/11/03 00:17:50;;;;;;;327.40;151.57;;;;;;;;;;4976943;28;20189;-54
2022/11/03 00:20:16;;;;;;;340.77;158.10;;;;;;;;;;4984572;28;22034;-54
2022/11/03 00:22:42;;;;;;;326.23;148.57;;;;;;;;;;4983585;28;20221;-54
2022/11/03 00:25:07;;;;;;;354.00;167.33;;;;;;;;;;4986213;28;20720;-55
2022/11/03 00:27:33;;;;;;;328.07;152.03;;;;;;;;;;4972008;28;20189;-55
2022/11/03 00:29:59;;;;;;;326.67;149.33;;;;;;;;;;4978954;28;20220;-54
2022/11/03 00:32:25;;;;;;;307.17;139.87;;;;;;;;;;4987139;28;20467;-54
2022/11/03 00:34:51;;;;;;;302.03;138.20;;;;;;;;;;4986715;28;20210;-54
2022/11/03 00:37:17;;;;;;;344.60;160.97;;;;;;;;;;4979540;28;20221;-54
2022/11/03 00:39:43;;;;;;;355.70;165.50;;;;;;;;;;4977485;28;20589;-54
2022/11/03 00:42:09;;;;;;;342.50;159.10;;;;;;;;;;4976988;28;20189;-54
2022/11/03 00:44:35;;;;;;;328.67;151.13;;;;;;;;;;4972863;28;20224;-54
2022/11/03 00:47:01;;;;;;;322.67;150.47;;;;;;;;;;4975398;28;20213;-54
2022/11/03 00:49:27;;;;;;;340.87;159.07;;;;;;;;;;4976531;28;20218;-54
2022/11/03 00:51:52;;;;;;;313.07;141.80;;;;;;;;;;4980951;28;20553;-53
2022/11/03 00:54:18;;;;;;;321.77;150.67;;;;;;;;;;4978737;28;20197;-54
2022/11/03 00:56:44;;;;;;;332.33;157.37;;;;;;;;;;4967429;28;20260;-54
2022/11/03 00:59:10;;;;;;;281.33;129.93;;;;;;;;;;4978758;28;20221;-54
2022/11/03 01:01:39;;;;;;;326.10;155.87;;;;;;;;;;4972330;28;20221;-54
2022/11/03 01:06:51;;;;;;;280.13;129.53;;;;;;;;;;4989492;28;20232;-54
2022/11/03 01:09:17;;;;;;;354.63;164.53;;;;;;;;;;4979533;28;20197;-54
2022/11/03 01:11:49;;;;;;;351.37;163.03;;;;;;;;;;4974743;28;20217;-54
2022/11/03 01:14:15;;;;;;;326.37;149.70;;;;;;;;;;4974851;28;20319;-54
2022/11/03 01:16:41;;;;;;;316.97;145.90;;;;;;;;;;4983371;28;20216;-54
2022/11/03 01:19:08;;;;;;;326.70;149.57;;;;;;;;;;4985170;28;20220;-54
2022/11/03 01:21:34;;;;;;;324.77;148.73;;;;;;;;;;4980744;28;20557;-54
2022/11/03 01:24:03;;;;;;;328.37;153.27;;;;;;;;;;4976107;28;20181;-54
2022/11/03 01:26:29;;;;;;;308.43;142.20;;;;;;;;;;4979926;28;20213;-54
2022/11/03 01:28:55;;;;;;;238.50;124.17;;;;;;;;;;4980295;28;20440;-54
2022/11/03 01:31:23;;;;;;;186.97;104.53;;;;;;;;;;4980786;28;20332;-54
2022/11/03 01:33:49;;;;;;;208.03;114.30;;;;;;;;;;4979476;28;21311;-54
2022/11/03 01:36:15;;;;;;;196.53;110.33;;;;;;;;;;4990868;28;20217;-54
2022/11/03 01:38:42;;;;;;;215.40;116.50;;;;;;;;;;4985111;28;20213;-54
2022/11/03 01:41:09;;;;;;;207.10;114.67;;;;;;;;;;4979394;28;20210;-54
2022/11/03 01:43:37;;;;;;;181.43;104.53;;;;;;;;;;4976330;28;20232;-54
2022/11/03 01:46:08;;;;;;;184.47;105.33;;;;;;;;;;4981189;28;20222;-54
2022/11/03 01:48:34;;;;;;;216.17;118.87;;;;;;;;;;4985280;28;21020;-54
2022/11/03 01:51:02;;;;;;;191.93;107.07;;;;;;;;;;4985947;28;20192;-54
2022/11/03 01:53:29;;;;;;;236.80;128.00;;;;;;;;;;4981808;28;21007;-55
2022/11/03 01:55:55;;;;;;;197.07;111.10;;;;;;;;;;4984668;28;20217;-54
2022/11/03 01:58:23;;;;;;;194.90;109.60;;;;;;;;;;4984571;28;20227;-54
2022/11/03 02:00:51;;;;;;;160.57;95.93;;;;;;;;;;4989933;28;20232;-53
2022/11/03 02:03:18;;;;;;;226.37;123.60;;;;;;;;;;4990503;28;20248;-54
2022/11/03 02:05:45;;;;;;;182.80;104.87;;;;;;;;;;4986187;28;20896;-54
2022/11/03 02:08:19;;;;;;;180.73;104.77;;;;;;;;;;4983490;28;20573;-54
2022/11/03 02:10:48;;;;;;;175.73;102.57;;;;;;;;;;4978852;28;20236;-54
2022/11/03 02:13:18;;;;;;;216.33;119.17;;;;;;;;;;4990113;28;20581;-54
2022/11/03 02:15:45;;;;;;;184.73;105.70;;;;;;;;;;4979614;28;20430;-54
2022/11/03 02:18:12;;;;;;;202.57;114.90;;;;;;;;;;4975007;28;20248;-54
2022/11/03 02:20:38;;;;;;;170.93;100.43;;;;;;;;;;4982361;28;20242;-54
2022/11/03 02:23:17;;;;;;;221.33;122.33;;;;;;;;;;4979882;28;20534;-53
2022/11/03 02:25:44;;;;;;;210.97;116.97;;;;;;;;;;4991655;28;20246;-54
2022/11/03 02:28:11;;;;;;;170.47;99.70;;;;;;;;;;5009358;28;20235;-54
2022/11/03 02:30:39;;;;;;;178.30;104.43;;;;;;;;;;5003884;28;20691;-54
2022/11/03 02:33:08;;;;;;;203.53;112.27;;;;;;;;;;4999221;28;20219;-54
2022/11/03 02:35:36;;;;;;;168.97;101.73;;;;;;;;;;5002410;28;20315;-54
2022/11/03 02:38:03;;;;;;;201.17;113.27;;;;;;;;;;5000726;28;20270;-54
2022/11/03 02:40:34;;;;;;;150.27;91.57;;;;;;;;;;5007683;28;20405;-54
2022/11/03 02:43:00;;;;;;;233.47;126.87;;;;;;;;;;4990933;28;20239;-53
2022/11/03 02:45:26;;;;;;;207.60;115.73;;;;;;;;;;4997223;28;20283;-54
2022/11/03 02:47:54;;;;;;;147.13;90.97;;;;;;;;;;5016136;28;20254;-54
2022/11/03 02:50:21;;;;;;;153.90;94.73;;;;;;;;;;5004537;28;20283;-54
2022/11/03 02:52:47;;;;;;;186.13;108.87;;;;;;;;;;4991587;28;20300;-54
2022/11/03 02:55:13;;;;;;;162.50;99.07;;;;;;;;;;4993098;28;20212;-54
2022/11/03 02:57:45;;;;;;;182.53;106.20;;;;;;;;;;4998843;28;20180;-55
2022/11/03 03:00:11;;;;;;;213.27;119.63;;;;;;;;;;4997494;28;20177;-53
2022/11/03 03:02:41;;;;;;;159.97;96.93;;;;;;;;;;5001652;28;20220;-54
2022/11/03 03:05:10;;;;;;;171.77;102.10;;;;;;;;;;4997261;28;20307;-54
2022/11/03 03:07:39;;;;;;;173.80;104.03;;;;;;;;;;5000401;28;20306;-54
2022/11/03 03:10:07;;;;;;;138.90;89.80;;;;;;;;;;5001624;28;20232;-54
2022/11/03 03:12:35;;;;;;;143.17;91.60;;;;;;;;;;5007620;28;20204;-53
2022/11/03 03:15:03;;;;;;;189.93;111.70;;;;;;;;;;4992895;28;20212;-54
2022/11/03 03:17:47;;;;;;;120.20;83.10;;;;;;;;;;5006715;28;20208;-54
2022/11/03 03:20:23;;;;;;;158.23;97.03;;;;;;;;;;5007296;28;20204;-54
2022/11/03 03:22:53;;;;;;;159.90;98.80;;;;;;;;;;4999280;28;20224;-54
2022/11/03 03:25:31;;;;;;;129.90;87.47;;;;;;;;;;4993317;28;20224;-54
2022/11/03 03:28:00;;;;;;;157.63;96.00;;;;;;;;;;5000984;28;20351;-53
2022/11/03 03:30:27;;;;;;;116.17;79.37;;;;;;;;;;4999724;28;20202;-54
2022/11/03 03:32:54;;;;;;;126.37;82.50;;;;;;;;;;5009290;28;20228;-54
2022/11/03 03:35:22;;;;;;;127.73;85.20;;;;;;;;;;5004242;28;20639;-54
2022/11/03 03:37:50;;;;;;;182.77;106.53;;;;;;;;;;4999337;28;20258;-54
2022/11/03 03:40:20;;;;;;;129.00;84.40;;;;;;;;;;4999600;28;20491;-54
2022/11/03 03:42:47;;;;;;;164.83;100.33;;;;;;;;;;4997050;28;20315;-54
2022/11/03 03:45:13;;;;;;;158.87;96.87;;;;;;;;;;4990904;28;20223;-54
2022/11/03 03:47:39;;;;;;;115.33;78.83;;;;;;;;;;5007882;28;20234;-54
2022/11/03 03:50:05;;;;;;;120.33;80.80;;;;;;;;;;5004615;28;20627;-54
2022/11/03 03:52:33;;;;;;;143.43;90.20;;;;;;;;;;5002982;28;20231;-54
2022/11/03 03:54:59;;;;;;;194.93;113.33;;;;;;;;;;4990934;28;20671;-54
2022/11/03 03:57:26;;;;;;;120.30;81.57;;;;;;;;;;4996949;28;21841;-53
2022/11/03 03:59:52;;;;;;;131.93;84.83;;;;;;;;;;5006351;28;20568;-54
2022/11/03 04:02:18;;;;;;;134.07;85.50;;;;;;;;;;5004246;28;20220;-54
2022/11/03 04:04:44;;;;;;;133.10;87.83;;;;;;;;;;4999497;28;20274;-54
2022/11/03 04:09:55;;;;;;;114.00;79.00;;;;;;;;;;5002012;28;20489;-54
2022/11/03 04:23:20;;;;;;;226.03;116.90;;;;;;;;;;4998057;28;20734;-54
2022/11/03 04:26:06;;;;;;;294.40;142.80;;;;;;;;;;4998450;28;20221;-54
2022/11/03 04:28:32;;;;;;;253.67;127.60;;;;;;;;;;5000944;28;20219;-54
2022/11/03 04:30:58;;;;;;;215.93;109.27;;;;;;;;;;4991283;28;20426;-54
2022/11/03 04:33:25;;;;;;;255.63;126.93;;;;;;;;;;5011759;28;20345;-54
2022/11/03 04:35:52;;;;;;;238.77;120.40;;;;;;;;;;4999498;28;20227;-54
2022/11/03 04:38:22;;;;;;;258.43;131.37;;;;;;;;;;4996815;28;20627;-54
2022/11/03 04:40:52;;;;;;;257.67;128.03;;;;;;;;;;4991561;28;20251;-54
2022/11/03 04:43:18;;;;;;;213.90;111.20;;;;;;;;;;4994776;28;20643;-54
2022/11/03 04:45:45;;;;;;;208.03;110.07;;;;;;;;;;5002219;28;20246;-55
2022/11/03 04:48:12;;;;;;;204.57;105.20;;;;;;;;;;5009459;28;20782;-54
2022/11/03 04:50:39;;;;;;;256.53;127.07;;;;;;;;;;5004255;28;20239;-54
2022/11/03 04:53:08;;;;;;;228.10;116.33;;;;;;;;;;5006410;28;20580;-54
2022/11/03 04:55:34;;;;;;;239.47;119.57;;;;;;;;;;5000079;28;20220;-54
2022/11/03 04:58:02;;;;;;;256.23;128.10;;;;;;;;;;4994216;28;20235;-54
2022/11/03 05:00:28;;;;;;;274.57;135.73;;;;;;;;;;4996581;28;20177;-54
2022/11/03 05:02:53;;;;;;;274.43;136.50;;;;;;;;;;5001541;28;20223;-54
2022/11/03 05:05:24;;;;;;;285.97;139.30;;;;;;;;;;4995683;28;21357;-55
2022/11/03 05:07:51;;;;;;;281.43;135.43;;;;;;;;;;5004999;28;20220;-55
2022/11/03 05:10:18;;;;;;;260.83;127.13;;;;;;;;;;4993769;28;20322;-54
2022/11/03 05:12:46;;;;;;;275.17;133.03;;;;;;;;;;5003059;28;20238;-54
2022/11/03 05:15:31;;;;;;;305.83;151.23;;;;;;;;;;4999299;28;20187;-55
2022/11/03 05:17:58;;;;;;;315.27;158.00;;;;;;;;;;5006294;28;20916;-55
2022/11/03 05:20:29;;;;;;;290.13;141.00;;;;;;;;;;4999460;28;20262;-55
2022/11/03 05:22:56;;;;;;;300.07;145.17;;;;;;;;;;5002107;28;20720;-55
2022/11/03 05:25:34;;;;;;;273.47;129.83;;;;;;;;;;5010804;28;20722;-55
2022/11/03 05:28:00;;;;;;;291.83;136.03;;;;;;;;;;5002638;28;20466;-55
2022/11/03 05:30:26;;;;;;;288.80;133.20;;;;;;;;;;5002809;28;20546;-55
2022/11/03 05:32:52;;;;;;;319.70;144.30;;;;;;;;;;5006054;28;20212;-55
2022/11/03 05:35:20;;;;;;;286.23;127.43;;;;;;;;;;5004399;28;20223;-55
2022/11/03 05:37:46;;;;;;;342.00;157.60;;;;;;;;;;5008781;28;20207;-54
2022/11/03 05:40:30;;;;;;;284.80;136.83;;;;;;;;;;4998878;28;20218;-55
2022/11/03 05:42:58;;;;;;;284.30;139.53;;;;;;;;;;5011102;28;20219;-55
2022/11/03 05:45:29;;;;;;;181.93;103.60;;;;;;;;;;5008614;28;20577;-55
2022/11/03 05:47:56;;;;;;;231.30;116.33;;;;;;;;;;5018981;28;20185;-55
2022/11/03 05:50:24;;;;;;;254.53;131.50;;;;;;;;;;5020118;28;20216;-55
2022/11/03 05:52:51;;;;;;;275.77;139.67;;;;;;;;;;5005962;28;20592;-55
2022/11/03 05:55:24;;;;;;;293.40;138.83;;;;;;;;;;5005958;28;20266;-54
2022/11/03 05:57:51;;;;;;;260.33;142.13;;;;;;;;;;5004005;28;20216;-55
2022/11/03 06:00:43;;;;;;;207.70;115.43;;;;;;;;;;5013135;28;20620;-54
2022/11/03 06:03:13;;;;;;;217.83;110.30;;;;;;;;;;5015940;28;20231;-55
2022/11/03 06:05:40;;;;;;;281.50;137.73;;;;;;;;;;5013788;28;20212;-55
2022/11/03 06:08:14;;;;;;;262.90;136.60;;;;;;;;;;5006512;28;20377;-55
2022/11/03 06:10:41;;;;;;;245.93;119.57;;;;;;;;;;5010719;28;20295;-55
2022/11/03 06:13:13;;;;;;;270.33;132.00;;;;;;;;;;5004849;28;20232;-55
2022/11/03 06:15:41;;;;;;;479.00;230.67;;;;;;;;;;4988276;28;20792;-55
2022/11/03 06:18:13;;;;;;;321.77;157.77;;;;;;;;;;4982013;28;20950;-55
2022/11/03 06:20:39;;;;;;;252.33;122.60;;;;;;;;;;4975375;28;20315;-54
2022/11/03 06:23:08;;;;;;;242.10;120.80;;;;;;;;;;4966026;28;20381;-55
2022/11/03 06:25:40;;;;;;;263.70;130.00;;;;;;;;;;4968260;28;20244;-55
2022/11/03 06:28:10;;;;;;;221.37;114.60;;;;;;;;;;4981682;28;20338;-54
2022/11/03 06:30:38;;;;;;;297.17;141.57;;;;;;;;;;4982587;28;20328;-55
2022/11/03 06:33:15;;;;;;;289.23;142.17;;;;;;;;;;4982090;28;20247;-54
2022/11/03 06:35:42;;;;;;;307.73;153.00;;;;;;;;;;4979694;28;20224;-55
2022/11/03 06:38:28;;;;;;;296.43;143.00;;;;;;;;;;4960424;28;20312;-54
2022/11/03 06:40:54;;;;;;;247.03;130.43;;;;;;;;;;4962172;28;20370;-55
2022/11/03 06:43:20;;;;;;;324.07;164.60;;;;;;;;;;4980510;28;20220;-55
2022/11/03 06:45:53;;;;;;;261.20;131.23;;;;;;;;;;4979997;28;20581;-55
2022/11/03 06:48:21;;;;;;;272.47;134.00;;;;;;;;;;4976714;28;20997;-55
2022/11/03 06:50:47;;;;;;;306.50;151.57;;;;;;;;;;5000064;28;20228;-55
2022/11/03 06:53:18;;;;;;;307.37;149.60;;;;;;;;;;4984723;28;20217;-55
2022/11/03 06:55:46;;;;;;;314.57;146.97;;;;;;;;;;4987845;28;20255;-55
2022/11/03 06:58:16;;;;;;;307.03;147.03;;;;;;;;;;4975436;28;20527;-55
2022/11/03 07:00:42;;;;;;;295.53;136.53;;;;;;;;;;4992368;28;20209;-55
2022/11/03 07:03:10;;;;;;;262.40;142.47;;;;;;;;;;4993279;28;21065;-54
2022/11/03 07:05:36;;;;;;;243.83;135.00;;;;;;;;;;4976125;28;20225;-55
2022/11/03 07:08:21;;;;;;;184.37;98.27;;;;;;;;;;5000153;28;20222;-55
2022/11/03 07:10:47;;;;;;;228.67;112.80;;;;;;;;;;4988318;28;20786;-55
2022/11/03 07:13:15;;;;;;;218.50;109.90;;;;;;;;;;4974515;28;20736;-60
2022/11/03 07:15:41;;;;;;;168.60;96.63;;;;;;;;;;5002216;28;20574;-60
2022/11/03 07:18:16;;;;;;;226.33;115.03;;;;;;;;;;4995275;28;20193;-60
2022/11/03 07:20:42;;;;;;;302.43;136.07;;;;;;;;;;4993199;28;20355;-60
2022/11/03 07:23:12;;;;;;;335.80;154.93;;;;;;;;;;5010076;28;20267;-60
2022/11/03 07:25:38;;;;;;;328.93;152.13;;;;;;;;;;4998855;28;20227;-60
2022/11/03 07:28:04;;;;;;;336.67;155.77;;;;;;;;;;4985850;28;20216;-55
2022/11/03 07:30:34;;;;;;;286.90;129.00;;;;;;;;;;4990794;28;20320;-54
2022/11/03 07:33:02;;;;;;;296.80;135.53;;;;;;;;;;4988422;28;20229;-54
2022/11/03 07:35:28;;;;;;;281.63;133.97;;;;;;;;;;4986175;28;20224;-54
2022/11/03 07:37:54;;;;;;;309.30;148.20;;;;;;;;;;4994993;28;20479;-54
2022/11/03 07:40:20;;;;;;;325.73;147.70;;;;;;;;;;4990602;28;20215;-54
2022/11/03 07:42:46;;;;;;;197.07;116.67;;;;;;;;;;4989240;28;20220;-54
2022/11/03 07:45:32;;;;;;;133.33;91.93;;;;;;;;;;4992093;28;20466;-54
2022/11/03 07:47:59;;;;;;;123.13;87.63;;;;;;;;;;4990151;28;20554;-54
2022/11/03 07:50:25;;;;;;;143.60;93.47;;;;;;;;;;4995805;28;20304;-54
2022/11/03 07:52:51;;;;;;;161.70;99.90;;;;;;;;;;5005088;28;20307;-54
2022/11/03 07:55:17;;;;;;;163.27;101.50;;;;;;;;;;4999561;28;20573;-54
2022/11/03 07:57:43;;;;;;;178.60;106.67;;;;;;;;;;4985225;28;20181;-55
2022/11/03 08:00:12;;;;;;;194.87;116.30;;;;;;;;;;4978364;28;20178;-54
2022/11/03 08:02:51;;;;;;;152.30;94.47;;;;;;;;;;4989905;28;20224;-54
2022/11/03 08:05:17;;;;;;;177.23;103.50;;;;;;;;;;5007171;28;20707;-54
2022/11/03 08:07:43;;;;;;;207.60;120.90;;;;;;;;;;4992876;28;20227;-54
2022/11/03 08:10:09;;;;;;;168.60;102.57;;;;;;;;;;4976355;28;20231;-54
2022/11/03 08:12:35;;;;;;;166.80;101.93;;;;;;;;;;4980012;28;20336;-54
2022/11/03 08:15:01;;;;;;;211.40;119.17;;;;;;;;;;4985732;28;20208;-54
2022/11/03 08:17:27;;;;;;;197.30;111.80;;;;;;;;;;4989540;28;20216;-54
2022/11/03 08:19:53;;;;;;;217.53;120.03;;;;;;;;;;4982358;28;20228;-55
2022/11/03 08:22:19;;;;;;;185.23;102.40;;;;;;;;;;4990206;28;20252;-54
2022/11/03 08:24:45;;;;;;;227.73;118.63;;;;;;;;;;4984421;28;20229;-54
2022/11/03 08:27:11;;;;;;;237.93;119.47;;;;;;;;;;5005053;28;20212;-54
2022/11/03 08:29:37;;;;;;;275.47;133.70;;;;;;;;;;4985453;28;20367;-54
2022/11/03 08:32:03;;;;;;;233.20;116.10;;;;;;;;;;4988347;28;20564;-54
2022/11/03 08:34:29;;;;;;;250.63;122.67;;;;;;;;;;4996324;28;20563;-55
2022/11/03 08:36:55;;;;;;;296.53;140.63;;;;;;;;;;4986020;28;20306;-54
2022/11/03 08:39:21;;;;;;;313.67;148.77;;;;;;;;;;4990956;28;20189;-54
2022/11/03 08:41:47;;;;;;;348.43;164.23;;;;;;;;;;4996836;28;20213;-54
2022/11/03 08:44:12;;;;;;;316.77;144.60;;;;;;;;;;4999855;28;20212;-54
2022/11/03 08:46:38;;;;;;;321.00;148.20;;;;;;;;;;4985522;28;20231;-54
2022/11/03 08:49:04;;;;;;;274.00;134.07;;;;;;;;;;4983737;28;20209;-54
2022/11/03 08:51:31;;;;;;;271.10;132.23;;;;;;;;;;4980768;28;20247;-55
2022/11/03 08:53:57;;;;;;;258.17;124.97;;;;;;;;;;5018672;28;20243;-54
2022/11/03 08:56:23;;;;;;;264.77;127.33;;;;;;;;;;5023548;28;20246;-55
2022/11/03 08:58:49;;;;;;;295.47;141.63;;;;;;;;;;4996597;28;20299;-54
2022/11/03 09:01:15;;;;;;;247.70;121.43;;;;;;;;;;4980567;28;20784;-54
2022/11/03 09:03:41;;;;;;;277.50;136.00;;;;;;;;;;4990700;28;20280;-54
2022/11/03 09:06:07;;;;;;;258.50;126.83;;;;;;;;;;4980080;28;20820;-54
2022/11/03 09:08:33;;;;;;;298.47;145.77;;;;;;;;;;4967127;28;20224;-54
2022/11/03 09:10:59;;;;;;;352.17;179.60;;;;;;;;;;4966999;28;20221;-54
2022/11/03 09:13:25;;;;;;;299.30;146.23;;;;;;;;;;4982989;28;22385;-55
2022/11/03 09:15:51;;;;;;;287.07;139.67;;;;;;;;;;4986856;28;20282;-54
2022/11/03 09:18:17;;;;;;;271.90;131.07;;;;;;;;;;5014349;28;20750;-54
2022/11/03 09:20:43;;;;;;;307.97;147.73;;;;;;;;;;4987510;28;20218;-54
2022/11/03 09:23:09;;;;;;;299.17;143.27;;;;;;;;;;4985336;28;20274;-55
2022/11/03 09:25:35;;;;;;;279.83;134.53;;;;;;;;;;4996768;28;20311;-54
2022/11/03 09:28:01;;;;;;;273.17;132.00;;;;;;;;;;5015426;23;20263;-48
2022/11/03 09:30:28;;;;;;;266.27;131.80;;;;;;;;;;5007581;28;20185;-49
2022/11/03 09:32:53;;;;;;;237.97;119.63;;;;;;;;;;5007477;28;20201;-48
2022/11/03 09:35:19;;;;;;;241.23;121.70;;;;;;;;;;5007129;28;20221;-48
2022/11/03 09:37:45;;;;;;;240.40;122.73;;;;;;;;;;5006822;28;20362;-49
2022/11/03 09:40:14;;;;;;;249.10;126.70;;;;;;;;;;5006737;28;20673;-48
2022/11/03 09:42:40;;;;;;;244.80;125.20;;;;;;;;;;5007245;28;20223;-48
2022/11/03 09:45:08;;;;;;;248.83;124.90;;;;;;;;;;5007243;28;20307;-48
2022/11/03 09:47:46;;;;;;;259.00;131.37;;;;;;;;;;5006987;28;20589;-48
2022/11/03 09:50:16;;;;;;;263.07;131.03;;;;;;;;;;5006819;28;20294;-48
2022/11/03 09:52:42;;;;;;;250.73;124.30;;;;;;;;;;5008584;28;20741;-49
2022/11/03 09:55:19;;;;;;;272.47;133.37;;;;;;;;;;5010717;28;20221;-50
2022/11/03 09:57:45;;;;;;;282.00;136.43;;;;;;;;;;5010848;28;20259;-49
2022/11/03 10:00:22;;;;;;;306.60;141.37;;;;;;;;;;5010537;28;20181;-49
2022/11/03 10:02:48;;;;;;;291.30;133.70;;;;;;;;;;5009311;28;20251;-49
2022/11/03 10:05:23;;;;;;;314.33;146.77;;;;;;;;;;5009978;28;20221;-49
2022/11/03 10:07:49;;;;;;;315.07;143.03;;;;;;;;;;5009908;28;20216;-48
2022/11/03 10:10:17;;;;;;;313.33;143.43;;;;;;;;;;5009653;28;20220;-49
2022/11/03 10:12:43;;;;;;;317.63;145.37;;;;;;;;;;5010470;28;20209;-48
2022/11/03 10:15:16;;;;;;;316.83;144.93;;;;;;;;;;5010769;28;20177;-48
2022/11/03 10:17:43;;;;;;;328.00;150.40;;;;;;;;;;5010391;28;20226;-48
2022/11/03 10:20:10;;;;;;;314.33;142.70;;;;;;;;;;5010210;28;20220;-49
2022/11/03 10:22:36;;;;;;;321.70;148.83;;;;;;;;;;5010259;28;20243;-49
2022/11/03 10:25:21;;;;;;;313.87;145.13;;;;;;;;;;5009756;28;20217;-49
2022/11/03 10:27:46;;;;;;;324.47;153.43;;;;;;;;;;5008768;28;20228;-49
2022/11/03 10:30:12;;;;;;;310.33;154.30;;;;;;;;;;5010865;28;20255;-49
2022/11/03 10:32:40;;;;;;;314.67;146.77;;;;;;;;;;5010026;28;20231;-49
2022/11/03 10:35:29;;;;;;;317.60;148.47;;;;;;;;;;5009571;28;20216;-48
2022/11/03 10:37:55;;;;;;;317.93;148.70;;;;;;;;;;5009907;28;20314;-49
2022/11/03 10:40:34;;;;;;;304.83;142.13;;;;;;;;;;5009911;28;20248;-49
2022/11/03 10:43:00;;;;;;;308.90;140.77;;;;;;;;;;5010351;28;20570;-50
2022/11/03 10:45:26;;;;;;;310.23;146.17;;;;;;;;;;5008622;28;20661;-50
2022/11/03 10:48:04;;;;;;;308.00;149.20;;;;;;;;;;5010215;28;20224;-50
2022/11/03 10:50:30;;;;;;;298.73;144.90;;;;;;;;;;5010098;28;20215;-50
2022/11/03 10:52:56;;;;;;;292.50;143.47;;;;;;;;;;5009899;28;20436;-50
2022/11/03 10:55:23;;;;;;;293.57;145.63;;;;;;;;;;5009303;28;20592;-50
2022/11/03 10:57:49;;;;;;;279.30;138.57;;;;;;;;;;5009453;28;20204;-50
2022/11/03 11:00:16;;;;;;;285.80;144.50;;;;;;;;;;5009198;28;20169;-50
2022/11/03 11:02:43;;;;;;;272.13;137.53;;;;;;;;;;5007480;28;20216;-51
2022/11/03 11:05:14;;;;;;;275.67;144.63;;;;;;;;;;5009628;28;20236;-50
2022/11/03 11:07:41;;;;;;;280.57;142.60;;;;;;;;;;5009893;28;20241;-50
2022/11/03 11:10:12;;;;;;;264.50;136.87;;;;;;;;;;5007833;28;20327;-50
2022/11/03 11:12:39;;;;;;;262.47;139.57;;;;;;;;;;5009347;28;20608;-50
2022/11/03 11:15:24;;;;;;;256.97;137.57;;;;;;;;;;5009583;28;20271;-50
2022/11/03 11:17:50;;;;;;;248.80;137.57;;;;;;;;;;5009220;28;20213;-50
2022/11/03 11:20:17;;;;;;;263.27;143.97;;;;;;;;;;5007783;28;20722;-50
2022/11/03 11:22:43;;;;;;;248.13;137.73;;;;;;;;;;5009375;28;20236;-50
2022/11/03 11:25:09;;;;;;;238.40;132.67;;;;;;;;;;5008815;28;20217;-50
2022/11/03 11:27:35;;;;;;;236.20;135.53;;;;;;;;;;5009416;28;20189;-50
2022/11/03 11:30:06;;;;;;;227.00;135.27;;;;;;;;;;5009742;28;20188;-51
2022/11/03 11:32:44;;;;;;;224.33;135.07;;;;;;;;;;5009176;28;20700;-51
2022/11/03 11:35:17;;;;;;;236.37;141.50;;;;;;;;;;5008437;28;20216;-50
2022/11/03 11:37:43;;;;;;;220.47;137.37;;;;;;;;;;5008865;28;20695;-51
2022/11/03 11:40:14;;;;;;;228.07;140.23;;;;;;;;;;5006843;28;20286;-50
2022/11/03 11:42:58;;;;;;;219.87;137.97;;;;;;;;;;5008982;28;20177;-50
2022/11/03 11:45:44;;;;;;;223.57;140.80;;;;;;;;;;5008130;28;20667;-50
2022/11/03 11:48:17;;;;;;;232.33;144.00;;;;;;;;;;5007437;28;20235;-50
2022/11/03 11:50:43;;;;;;;215.87;132.87;;;;;;;;;;5005928;28;20217;-50
2022/11/03 11:53:10;;;;;;;218.17;131.50;;;;;;;;;;5006888;28;20236;-51
2022/11/03 11:55:39;;;;;;;213.13;128.83;;;;;;;;;;5008294;28;20307;-50
2022/11/03 11:58:12;;;;;;;212.33;129.80;;;;;;;;;;5005673;28;20221;-51
2022/11/03 12:00:49;;;;;;;216.43;133.77;;;;;;;;;;5007508;28;20236;-50
2022/11/03 12:03:15;;;;;;;228.87;142.17;;;;;;;;;;5006327;28;20199;-51
2022/11/03 12:05:49;;;;;;;206.77;124.72;;;;;;;;;;5007547;28;20260;-51
2022/11/03 12:08:18;;;;;;;212.00;132.83;;;;;;;;;;5008254;28;20309;-50
2022/11/03 12:11:01;;;;;;;200.67;124.80;;;;;;;;;;5007907;28;20243;-51
2022/11/03 12:13:36;;;;;;;202.70;126.00;;;;;;;;;;5008057;28;20232;-50
2022/11/03 12:16:02;;;;;;;203.73;127.13;;;;;;;;;;5007433;28;20595;-50
2022/11/03 12:18:32;;;;;;;227.73;142.80;;;;;;;;;;5005809;28;20173;-51
2022/11/03 12:20:59;;;;;;;213.97;130.97;;;;;;;;;;5005247;28;20173;-51
2022/11/03 12:23:40;;;;;;;214.87;133.30;;;;;;;;;;5007823;28;20217;-51
2022/11/03 12:26:06;;;;;;;216.40;141.07;;;;;;;;;;5005592;28;20217;-51
2022/11/03 12:28:36;;;;;;;212.77;137.43;;;;;;;;;;5006601;28;20261;-51
2022/11/03 12:31:03;;;;;;;215.27;138.87;;;;;;;;;;5006213;28;20213;-51
2022/11/03 12:33:29;;;;;;;195.27;129.40;;;;;;;;;;5008231;28;20667;-50
2022/11/03 12:35:55;;;;;;;190.13;126.23;;;;;;;;;;5005244;28;20192;-51
2022/11/03 12:38:22;;;;;;;200.07;128.47;;;;;;;;;;5008235;28;20213;-51
2022/11/03 12:40:48;;;;;;;203.20;130.37;;;;;;;;;;5008293;28;20231;-51
2022/11/03 12:43:14;;;;;;;228.87;136.10;;;;;;;;;;5005914;28;20248;-51
2022/11/03 12:45:40;;;;;;;224.53;131.80;;;;;;;;;;5008172;28;20189;-50
2022/11/03 12:48:06;;;;;;;228.33;134.97;;;;;;;;;;5008851;28;20652;-50
2022/11/03 12:50:32;;;;;;;256.40;144.17;;;;;;;;;;5008386;28;20657;-51
2022/11/03 12:52:58;;;;;;;278.93;153.60;;;;;;;;;;5008901;28;20231;-50
2022/11/03 12:55:24;;;;;;;271.50;152.77;;;;;;;;;;5008411;28;20584;-51
2022/11/03 12:57:50;;;;;;;279.10;166.85;;;;;;;;;;5008614;28;20691;-51
2022/11/03 13:00:16;;;;;;;288.20;163.23;;;;;;;;;;5009222;28;20207;-50
2022/11/03 13:02:42;;;;;;;295.13;163.40;;;;;;;;;;5009056;28;20688;-50
2022/11/03 13:05:08;;;;;;;294.10;165.00;;;;;;;;;;5008720;28;20220;-50
2022/11/03 13:07:34;;;;;;;291.95;167.30;;;;;;;;;;5008779;28;20233;-50
2022/11/03 13:10:00;;;;;;;294.30;174.82;;;;;;;;;;5005999;28;20636;-51
2022/11/03 13:12:33;;;;;;;285.83;171.48;;;;;;;;;;5008646;28;20664;-50
2022/11/03 13:15:00;;;;;;;276.98;162.05;;;;;;;;;;5008951;28;20153;-50
2022/11/03 13:17:27;;;;;;;288.77;175.03;;;;;;;;;;5007037;28;20220;-50
2022/11/03 13:19:53;;;;;;;267.08;154.15;;;;;;;;;;5007961;28;20286;-51
2022/11/03 13:22:19;;;;;;;286.03;173.10;;;;;;;;;;5007392;28;20221;-51
2022/11/03 13:24:45;;;;;;;249.02;144.32;;;;;;;;;;5006880;28;20220;-52
2022/11/03 13:27:11;;;;;;;255.63;148.25;;;;;;;;;;5009284;28;20227;-51
2022/11/03 13:29:37;;;;;;;249.75;149.73;;;;;;;;;;5012160;28;20227;-51
2022/11/03 13:32:04;;;;;;;242.98;144.32;;;;;;;;;;5012099;28;20588;-51
2022/11/03 13:34:30;;;;;;;241.50;144.20;;;;;;;;;;5012572;28;20310;-51
2022/11/03 13:36:56;;;;;;;267.20;160.67;;;;;;;;;;5010979;28;20216;-51
2022/11/03 13:39:22;;;;;;;266.48;156.75;;;;;;;;;;5010892;28;20491;-51
2022/11/03 13:41:48;;;;;;;251.30;150.27;;;;;;;;;;5012073;28;20216;-51
2022/11/03 13:44:14;;;;;;;256.23;154.88;;;;;;;;;;5012216;28;20209;-50
2022/11/03 13:46:40;;;;;;;257.73;153.27;;;;;;;;;;5011681;28;20244;-51
2022/11/03 13:49:05;;;;;;;271.70;160.95;;;;;;;;;;5011957;28;20275;-50
2022/11/03 13:51:31;;;;;;;260.50;152.80;;;;;;;;;;5012001;28;20196;-51
2022/11/03 13:53:57;;;;;;;282.85;166.63;;;;;;;;;;5009741;28;20201;-51
2022/11/03 13:56:23;;;;;;;280.65;169.85;;;;;;;;;;5010036;28;20225;-51
2022/11/03 13:58:49;;;;;;;287.80;175.38;;;;;;;;;;5010902;28;20216;-51
2022/11/03 14:01:15;;;;;;;275.08;161.07;;;;;;;;;;5008914;28;20212;-51
2022/11/03 14:03:41;;;;;;;263.40;155.80;;;;;;;;;;5010486;28;20183;-51
2022/11/03 14:06:07;;;;;;;269.27;156.88;;;;;;;;;;5012016;28;20200;-51
2022/11/03 14:08:33;;;;;;;274.95;163.60;;;;;;;;;;5011690;28;20712;-51
2022/11/03 14:12:29;;;;;;;271.95;162.00;;;;;;;;;;5010021;28;20255;-51
2022/11/03 14:13:45;;;;;;;263.08;162.48;;;;;;;;;;5011498;28;20221;-51
2022/11/03 14:16:11;;;;;;;263.50;162.43;;;;;;;;;;5011164;28;20315;-51
2022/11/03 14:18:37;;;;;;;264.70;157.82;;;;;;;;;;5011282;28;20227;-51